Share

Al Ain, UAE

2:58 AM GST on April 25, 2014 (GMT +0400)
Al Ain International (OMAL) Elev 869 ft | 24.26 °N, 55.61 °E | Change Station

Current weather conditions updated 58 minutes ago

Clear
Clear
81 °F
Feels Like 81 °F
N
4
Wind Variable Wind from NE
Sunrise 5:47 AM
Sunset 6:43 PM
Moon Waning Crescent

Today is forecast to be Warmer than yesterday.

Pressure 29.83 in
Visibility -9999.0 miles
Clouds
Dew Point 45 °F
Humidity 28%
Rainfall 0.00 in
Snow Depth Not available.
UV Not available.
Pollen Not available.
Air Quality Not available.
Flu Activity Not available.
METAR OMAL 242200Z 04003KT CAVOK 27/07 Q1010 A2983 NOSIG

More Conditions Fewer Conditions

Pressure 29.83 in
Visibility -9999.0 miles
Clouds
Dew Point 45 °F
Humidity 28%
Rainfall 0.00 in
Snow Depth Not available.
UV Not available.
Pollen Not available.
Air Quality Not available.
Flu Activity Not available.
METAR OMAL 242200Z 04003KT CAVOK 27/07 Q1010 A2983 NOSIG

More Conditions Fewer Conditions

10-Day Weather Forecast

Almanac

Astronomy

Apr. 25, 2014 Rise Set
Actual Time 5:47 AM GST 6:43 PM GST
Civil Twilight 5:24 AM GST 7:07 PM GST
Nautical Twilight 4:56 AM GST 7:35 PM GST
Astronomical Twilight 4:27 AM GST 8:03 PM GST
Moon 2:52 AM GST (4/25) 3:04 PM GST (4/25)
Length of Visible Light 13h 43m
Length of Day
12h 56m
Tomorrow will be 1m 16s longer.
Waning Crescent, 22% of the Moon is Illuminated
Apr 24
Waning Crescent
Apr 29
New
May 6
First Quarter
May 14
Full
May 21
Last Quarter

Yesterday's Extremes

Country Highs Country Lows

Community

  • Jone Runs Falls
    Jone Runs Falls
  • Easter in Shenandoah National Park
    Easter in Shenandoah National Park
  • Sunset at Apalachicola Bay, Florida
    Sunset at Apalachicola Bay, Florida
  • Clouds mov'n in
    Clouds mov'n in
  • Stacked
    Stacked

WunderPhotos

Upload Photos

1,704,732 photos uploaded!

Nearby

Snow Depth

Not available.

Coastal Water Temperatures

Place Temperature
No Stations Reporting

Earthquake Activity

City Distance Mag. Time & Date
No recent earthquake activity has been reported nearby.
Minimum magnitude displayed is 2.5.

Nearby Weather Stations

There are no personal weather stations in this area.

What do you think?

We're not finished. Please let us know what you like, what you don't like, and what you are still missing.